sensor_id;sensor_type;location;lat;lon;timestamp;P1;durP1;ratioP1;P2;durP2;ratioP2
31368;SDS011;18004;48.416;10.066;2024-01-30T00:01:55;21.95;;;8.55;;
31368;SDS011;18004;48.416;10.066;2024-01-30T00:04:20;20.05;;;9.25;;
31368;SDS011;18004;48.416;10.066;2024-01-30T00:06:46;25.98;;;9.95;;
31368;SDS011;18004;48.416;10.066;2024-01-30T00:09:12;22.15;;;11.45;;
31368;SDS011;18004;48.416;10.066;2024-01-30T00:11:38;27.40;;;10.20;;
31368;SDS011;18004;48.416;10.066;2024-01-30T00:14:04;29.35;;;11.95;;
31368;SDS011;18004;48.416;10.066;2024-01-30T00:16:31;20.45;;;10.30;;
31368;SDS011;18004;48.416;10.066;2024-01-30T00:18:57;23.85;;;10.77;;
31368;SDS011;18004;48.416;10.066;2024-01-30T00:21:23;15.27;;;8.68;;
31368;SDS011;18004;48.416;10.066;2024-01-30T00:23:50;21.90;;;8.32;;
31368;SDS011;18004;48.416;10.066;2024-01-30T00:26:15;18.17;;;8.65;;
31368;SDS011;18004;48.416;10.066;2024-01-30T00:28:41;19.38;;;8.18;;
31368;SDS011;18004;48.416;10.066;2024-01-30T00:31:08;13.75;;;8.10;;
31368;SDS011;18004;48.416;10.066;2024-01-30T00:33:40;17.95;;;7.88;;
31368;SDS011;18004;48.416;10.066;2024-01-30T00:36:07;13.48;;;7.63;;
31368;SDS011;18004;48.416;10.066;2024-01-30T00:38:34;19.83;;;8.23;;
31368;SDS011;18004;48.416;10.066;2024-01-30T00:41:01;16.05;;;8.40;;
31368;SDS011;18004;48.416;10.066;2024-01-30T00:43:27;15.85;;;7.57;;
31368;SDS011;18004;48.416;10.066;2024-01-30T00:45:53;16.48;;;7.10;;
31368;SDS011;18004;48.416;10.066;2024-01-30T00:48:19;16.02;;;7.70;;
31368;SDS011;18004;48.416;10.066;2024-01-30T00:50:45;18.02;;;8.32;;
31368;SDS011;18004;48.416;10.066;2024-01-30T00:53:11;18.02;;;7.50;;
31368;SDS011;18004;48.416;10.066;2024-01-30T00:55:37;12.10;;;6.60;;
31368;SDS011;18004;48.416;10.066;2024-01-30T00:58:04;13.65;;;7.38;;
31368;SDS011;18004;48.416;10.066;2024-01-30T01:00:29;11.32;;;6.60;;
31368;SDS011;18004;48.416;10.066;2024-01-30T01:02:57;12.27;;;8.00;;
31368;SDS011;18004;48.416;10.066;2024-01-30T01:05:23;15.27;;;8.02;;
31368;SDS011;18004;48.416;10.066;2024-01-30T01:07:49;14.60;;;7.63;;
31368;SDS011;18004;48.416;10.066;2024-01-30T01:10:18;15.43;;;7.18;;
31368;SDS011;18004;48.416;10.066;2024-01-30T01:12:45;14.23;;;7.53;;
31368;SDS011;18004;48.416;10.066;2024-01-30T01:15:11;12.45;;;7.30;;
31368;SDS011;18004;48.416;10.066;2024-01-30T01:17:39;13.90;;;7.68;;
31368;SDS011;18004;48.416;10.066;2024-01-30T01:20:06;12.60;;;7.20;;
31368;SDS011;18004;48.416;10.066;2024-01-30T01:22:33;15.20;;;7.50;;
31368;SDS011;18004;48.416;10.066;2024-01-30T01:24:59;14.13;;;7.07;;
31368;SDS011;18004;48.416;10.066;2024-01-30T01:27:25;17.13;;;7.13;;
31368;SDS011;18004;48.416;10.066;2024-01-30T01:29:52;13.48;;;6.82;;
31368;SDS011;18004;48.416;10.066;2024-01-30T01:32:18;12.40;;;7.85;;
31368;SDS011;18004;48.416;10.066;2024-01-30T01:34:44;12.88;;;6.55;;
31368;SDS011;18004;48.416;10.066;2024-01-30T01:37:10;14.02;;;7.35;;
31368;SDS011;18004;48.416;10.066;2024-01-30T01:39:36;16.15;;;7.38;;
31368;SDS011;18004;48.416;10.066;2024-01-30T01:42:02;13.15;;;7.35;;
31368;SDS011;18004;48.416;10.066;2024-01-30T01:44:28;18.08;;;8.30;;
31368;SDS011;18004;48.416;10.066;2024-01-30T01:47:06;11.80;;;7.13;;
31368;SDS011;18004;48.416;10.066;2024-01-30T01:49:32;10.05;;;6.45;;
31368;SDS011;18004;48.416;10.066;2024-01-30T01:52:01;15.32;;;7.88;;
31368;SDS011;18004;48.416;10.066;2024-01-30T01:54:36;14.10;;;6.78;;
31368;SDS011;18004;48.416;10.066;2024-01-30T01:57:02;11.35;;;7.05;;
31368;SDS011;18004;48.416;10.066;2024-01-30T01:59:28;9.43;;;6.05;;
31368;SDS011;18004;48.416;10.066;2024-01-30T02:01:55;12.55;;;6.43;;
31368;SDS011;18004;48.416;10.066;2024-01-30T02:04:21;12.60;;;6.57;;
31368;SDS011;18004;48.416;10.066;2024-01-30T02:06:46;16.70;;;6.40;;
31368;SDS011;18004;48.416;10.066;2024-01-30T02:09:12;10.02;;;6.55;;
31368;SDS011;18004;48.416;10.066;2024-01-30T02:11:38;14.43;;;6.15;;
31368;SDS011;18004;48.416;10.066;2024-01-30T02:14:05;9.18;;;6.28;;
31368;SDS011;18004;48.416;10.066;2024-01-30T02:16:32;12.57;;;6.10;;
31368;SDS011;18004;48.416;10.066;2024-01-30T02:18:57;16.42;;;6.22;;
31368;SDS011;18004;48.416;10.066;2024-01-30T02:21:23;10.90;;;6.13;;
31368;SDS011;18004;48.416;10.066;2024-01-30T02:23:50;12.73;;;7.18;;
31368;SDS011;18004;48.416;10.066;2024-01-30T02:26:17;12.45;;;6.00;;
31368;SDS011;18004;48.416;10.066;2024-01-30T02:28:43;9.05;;;6.10;;
31368;SDS011;18004;48.416;10.066;2024-01-30T02:31:09;9.63;;;6.18;;
31368;SDS011;18004;48.416;10.066;2024-01-30T02:33:34;13.25;;;6.43;;
31368;SDS011;18004;48.416;10.066;2024-01-30T02:36:00;11.75;;;6.30;;
31368;SDS011;18004;48.416;10.066;2024-01-30T02:38:26;17.40;;;6.53;;
31368;SDS011;18004;48.416;10.066;2024-01-30T02:40:52;10.23;;;5.72;;
31368;SDS011;18004;48.416;10.066;2024-01-30T02:43:21;8.93;;;5.88;;
31368;SDS011;18004;48.416;10.066;2024-01-30T02:45:47;15.85;;;6.47;;
31368;SDS011;18004;48.416;10.066;2024-01-30T02:48:13;16.75;;;7.65;;
31368;SDS011;18004;48.416;10.066;2024-01-30T02:50:59;14.95;;;8.07;;
31368;SDS011;18004;48.416;10.066;2024-01-30T02:53:25;16.42;;;7.32;;
31368;SDS011;18004;48.416;10.066;2024-01-30T02:55:51;13.48;;;7.05;;
31368;SDS011;18004;48.416;10.066;2024-01-30T02:58:23;12.15;;;7.97;;
31368;SDS011;18004;48.416;10.066;2024-01-30T03:00:49;22.23;;;10.63;;
31368;SDS011;18004;48.416;10.066;2024-01-30T03:03:31;22.63;;;12.93;;
31368;SDS011;18004;48.416;10.066;2024-01-30T03:05:57;20.30;;;11.38;;
31368;SDS011;18004;48.416;10.066;2024-01-30T03:09:04;18.42;;;10.23;;
31368;SDS011;18004;48.416;10.066;2024-01-30T03:11:23;15.93;;;8.68;;
31368;SDS011;18004;48.416;10.066;2024-01-30T03:13:49;13.45;;;7.95;;
31368;SDS011;18004;48.416;10.066;2024-01-30T03:16:15;16.60;;;7.05;;
31368;SDS011;18004;48.416;10.066;2024-01-30T03:19:10;15.27;;;6.55;;
31368;SDS011;18004;48.416;10.066;2024-01-30T03:21:52;16.25;;;6.53;;
31368;SDS011;18004;48.416;10.066;2024-01-30T03:24:35;12.27;;;6.18;;
31368;SDS011;18004;48.416;10.066;2024-01-30T03:27:11;12.80;;;6.70;;
31368;SDS011;18004;48.416;10.066;2024-01-30T03:29:44;13.63;;;7.30;;
31368;SDS011;18004;48.416;10.066;2024-01-30T03:32:10;11.93;;;6.63;;
31368;SDS011;18004;48.416;10.066;2024-01-30T03:34:36;13.38;;;6.53;;
31368;SDS011;18004;48.416;10.066;2024-01-30T03:37:02;14.35;;;6.90;;
31368;SDS011;18004;48.416;10.066;2024-01-30T03:39:28;13.10;;;7.10;;
31368;SDS011;18004;48.416;10.066;2024-01-30T03:41:54;12.27;;;7.00;;
31368;SDS011;18004;48.416;10.066;2024-01-30T03:44:19;17.58;;;6.78;;
31368;SDS011;18004;48.416;10.066;2024-01-30T03:46:48;14.57;;;7.47;;
31368;SDS011;18004;48.416;10.066;2024-01-30T03:49:14;12.02;;;6.40;;
31368;SDS011;18004;48.416;10.066;2024-01-30T03:51:52;16.20;;;7.03;;
31368;SDS011;18004;48.416;10.066;2024-01-30T03:54:20;12.98;;;7.05;;
31368;SDS011;18004;48.416;10.066;2024-01-30T03:56:46;14.27;;;6.03;;
31368;SDS011;18004;48.416;10.066;2024-01-30T03:59:32;12.43;;;7.00;;
31368;SDS011;18004;48.416;10.066;2024-01-30T04:01:58;13.48;;;6.70;;
31368;SDS011;18004;48.416;10.066;2024-01-30T04:04:34;10.43;;;5.93;;
31368;SDS011;18004;48.416;10.066;2024-01-30T04:06:59;9.95;;;6.55;;
31368;SDS011;18004;48.416;10.066;2024-01-30T04:09:51;11.80;;;6.38;;
31368;SDS011;18004;48.416;10.066;2024-01-30T04:12:29;14.20;;;6.97;;
31368;SDS011;18004;48.416;10.066;2024-01-30T04:15:05;10.88;;;6.10;;
31368;SDS011;18004;48.416;10.066;2024-01-30T04:17:37;11.70;;;5.88;;
31368;SDS011;18004;48.416;10.066;2024-01-30T04:20:03;11.20;;;6.22;;
31368;SDS011;18004;48.416;10.066;2024-01-30T04:22:30;11.45;;;5.85;;
31368;SDS011;18004;48.416;10.066;2024-01-30T04:24:57;11.30;;;5.65;;
31368;SDS011;18004;48.416;10.066;2024-01-30T04:27:25;15.10;;;5.70;;
31368;SDS011;18004;48.416;10.066;2024-01-30T04:29:51;10.63;;;5.90;;
31368;SDS011;18004;48.416;10.066;2024-01-30T04:32:19;10.20;;;5.93;;
31368;SDS011;18004;48.416;10.066;2024-01-30T04:34:45;7.65;;;5.25;;
31368;SDS011;18004;48.416;10.066;2024-01-30T04:37:11;13.32;;;6.60;;
31368;SDS011;18004;48.416;10.066;2024-01-30T04:39:37;6.35;;;5.47;;
31368;SDS011;18004;48.416;10.066;2024-01-30T04:42:06;14.90;;;6.00;;
31368;SDS011;18004;48.416;10.066;2024-01-30T04:44:37;14.63;;;4.88;;
31368;SDS011;18004;48.416;10.066;2024-01-30T04:47:03;9.32;;;4.95;;
31368;SDS011;18004;48.416;10.066;2024-01-30T04:49:38;13.00;;;6.22;;
31368;SDS011;18004;48.416;10.066;2024-01-30T04:52:05;8.98;;;5.35;;
31368;SDS011;18004;48.416;10.066;2024-01-30T04:54:31;14.40;;;6.22;;
31368;SDS011;18004;48.416;10.066;2024-01-30T04:56:58;10.45;;;5.97;;
31368;SDS011;18004;48.416;10.066;2024-01-30T04:59:24;11.40;;;5.70;;
31368;SDS011;18004;48.416;10.066;2024-01-30T05:01:52;10.98;;;5.45;;
31368;SDS011;18004;48.416;10.066;2024-01-30T05:04:21;9.45;;;6.10;;
31368;SDS011;18004;48.416;10.066;2024-01-30T05:06:47;11.60;;;5.53;;
31368;SDS011;18004;48.416;10.066;2024-01-30T05:09:13;10.85;;;5.40;;
31368;SDS011;18004;48.416;10.066;2024-01-30T05:11:46;11.38;;;5.60;;
31368;SDS011;18004;48.416;10.066;2024-01-30T05:14:12;17.60;;;6.82;;
31368;SDS011;18004;48.416;10.066;2024-01-30T05:16:40;9.02;;;5.68;;
31368;SDS011;18004;48.416;10.066;2024-01-30T05:19:16;12.80;;;6.03;;
31368;SDS011;18004;48.416;10.066;2024-01-30T05:21:42;14.50;;;5.88;;
31368;SDS011;18004;48.416;10.066;2024-01-30T05:24:20;9.93;;;6.00;;
31368;SDS011;18004;48.416;10.066;2024-01-30T05:26:46;8.27;;;6.15;;
31368;SDS011;18004;48.416;10.066;2024-01-30T05:29:39;12.80;;;6.38;;
31368;SDS011;18004;48.416;10.066;2024-01-30T05:32:59;10.18;;;6.22;;
31368;SDS011;18004;48.416;10.066;2024-01-30T05:35:37;14.30;;;6.28;;
31368;SDS011;18004;48.416;10.066;2024-01-30T05:38:18;14.68;;;6.40;;
31368;SDS011;18004;48.416;10.066;2024-01-30T05:40:57;11.30;;;6.65;;
31368;SDS011;18004;48.416;10.066;2024-01-30T05:43:25;7.75;;;4.97;;
31368;SDS011;18004;48.416;10.066;2024-01-30T05:45:52;10.95;;;6.43;;
31368;SDS011;18004;48.416;10.066;2024-01-30T05:48:18;10.80;;;5.63;;
31368;SDS011;18004;48.416;10.066;2024-01-30T05:50:46;8.98;;;5.78;;
31368;SDS011;18004;48.416;10.066;2024-01-30T05:53:12;13.20;;;7.80;;
31368;SDS011;18004;48.416;10.066;2024-01-30T05:55:54;9.55;;;5.40;;
31368;SDS011;18004;48.416;10.066;2024-01-30T05:58:38;14.50;;;6.97;;
31368;SDS011;18004;48.416;10.066;2024-01-30T06:01:27;10.85;;;5.78;;
31368;SDS011;18004;48.416;10.066;2024-01-30T06:04:24;13.75;;;6.38;;
31368;SDS011;18004;48.416;10.066;2024-01-30T06:06:52;9.80;;;6.32;;
31368;SDS011;18004;48.416;10.066;2024-01-30T06:09:33;11.32;;;6.05;;
31368;SDS011;18004;48.416;10.066;2024-01-30T06:12:02;15.18;;;6.60;;
31368;SDS011;18004;48.416;10.066;2024-01-30T06:14:39;10.75;;;6.05;;
31368;SDS011;18004;48.416;10.066;2024-01-30T06:17:08;12.85;;;6.78;;
31368;SDS011;18004;48.416;10.066;2024-01-30T06:19:37;15.80;;;6.68;;
31368;SDS011;18004;48.416;10.066;2024-01-30T06:22:27;11.45;;;7.13;;
31368;SDS011;18004;48.416;10.066;2024-01-30T06:25:00;19.58;;;7.68;;
31368;SDS011;18004;48.416;10.066;2024-01-30T06:27:38;9.27;;;6.45;;
31368;SDS011;18004;48.416;10.066;2024-01-30T06:30:04;15.82;;;7.70;;
31368;SDS011;18004;48.416;10.066;2024-01-30T06:32:39;10.63;;;5.93;;
31368;SDS011;18004;48.416;10.066;2024-01-30T06:35:05;12.93;;;6.72;;
31368;SDS011;18004;48.416;10.066;2024-01-30T06:38:08;10.30;;;6.30;;
31368;SDS011;18004;48.416;10.066;2024-01-30T06:40:39;12.20;;;6.63;;
31368;SDS011;18004;48.416;10.066;2024-01-30T06:43:05;12.70;;;7.18;;
31368;SDS011;18004;48.416;10.066;2024-01-30T06:45:41;14.07;;;7.10;;
31368;SDS011;18004;48.416;10.066;2024-01-30T06:48:15;16.30;;;7.18;;
31368;SDS011;18004;48.416;10.066;2024-01-30T06:50:41;17.42;;;7.28;;
31368;SDS011;18004;48.416;10.066;2024-01-30T06:53:24;12.65;;;7.38;;
31368;SDS011;18004;48.416;10.066;2024-01-30T06:55:56;13.40;;;7.68;;
31368;SDS011;18004;48.416;10.066;2024-01-30T06:58:41;10.02;;;7.35;;
31368;SDS011;18004;48.416;10.066;2024-01-30T07:01:31;14.35;;;7.30;;
31368;SDS011;18004;48.416;10.066;2024-01-30T07:04:31;14.10;;;7.40;;
31368;SDS011;18004;48.416;10.066;2024-01-30T07:07:06;13.63;;;6.72;;
31368;SDS011;18004;48.416;10.066;2024-01-30T07:09:38;14.52;;;7.78;;
31368;SDS011;18004;48.416;10.066;2024-01-30T07:12:18;13.05;;;7.53;;
31368;SDS011;18004;48.416;10.066;2024-01-30T07:15:01;18.08;;;8.65;;
31368;SDS011;18004;48.416;10.066;2024-01-30T07:17:28;9.88;;;6.95;;
31368;SDS011;18004;48.416;10.066;2024-01-30T07:19:54;12.35;;;7.53;;
31368;SDS011;18004;48.416;10.066;2024-01-30T07:22:20;17.95;;;8.93;;
31368;SDS011;18004;48.416;10.066;2024-01-30T07:24:46;15.25;;;8.00;;
31368;SDS011;18004;48.416;10.066;2024-01-30T07:27:17;15.32;;;8.65;;
31368;SDS011;18004;48.416;10.066;2024-01-30T07:29:43;15.55;;;9.07;;
31368;SDS011;18004;48.416;10.066;2024-01-30T07:32:12;13.57;;;8.52;;
31368;SDS011;18004;48.416;10.066;2024-01-30T07:34:38;16.67;;;8.68;;
31368;SDS011;18004;48.416;10.066;2024-01-30T07:37:04;19.50;;;8.65;;
31368;SDS011;18004;48.416;10.066;2024-01-30T07:39:30;16.55;;;9.10;;
31368;SDS011;18004;48.416;10.066;2024-01-30T07:41:56;14.35;;;8.30;;
31368;SDS011;18004;48.416;10.066;2024-01-30T07:44:22;16.20;;;8.68;;
31368;SDS011;18004;48.416;10.066;2024-01-30T07:46:48;17.33;;;8.68;;
31368;SDS011;18004;48.416;10.066;2024-01-30T07:49:14;16.10;;;7.50;;
31368;SDS011;18004;48.416;10.066;2024-01-30T07:51:46;16.77;;;7.68;;
31368;SDS011;18004;48.416;10.066;2024-01-30T07:54:20;18.60;;;8.63;;
31368;SDS011;18004;48.416;10.066;2024-01-30T07:56:49;14.90;;;8.55;;
31368;SDS011;18004;48.416;10.066;2024-01-30T07:59:15;18.02;;;8.35;;
31368;SDS011;18004;48.416;10.066;2024-01-30T08:01:41;16.02;;;7.93;;
31368;SDS011;18004;48.416;10.066;2024-01-30T08:04:07;11.52;;;8.07;;
31368;SDS011;18004;48.416;10.066;2024-01-30T08:06:33;17.27;;;9.48;;
31368;SDS011;18004;48.416;10.066;2024-01-30T08:08:59;18.85;;;9.30;;
31368;SDS011;18004;48.416;10.066;2024-01-30T08:11:25;21.08;;;9.90;;
31368;SDS011;18004;48.416;10.066;2024-01-30T08:13:52;16.23;;;9.00;;
31368;SDS011;18004;48.416;10.066;2024-01-30T08:16:18;23.05;;;9.35;;
31368;SDS011;18004;48.416;10.066;2024-01-30T08:18:44;17.90;;;9.10;;
31368;SDS011;18004;48.416;10.066;2024-01-30T08:21:10;14.70;;;8.82;;
31368;SDS011;18004;48.416;10.066;2024-01-30T08:23:35;13.57;;;8.55;;
31368;SDS011;18004;48.416;10.066;2024-01-30T08:26:03;18.85;;;9.48;;
31368;SDS011;18004;48.416;10.066;2024-01-30T08:28:29;18.17;;;9.45;;
31368;SDS011;18004;48.416;10.066;2024-01-30T08:30:55;17.02;;;9.27;;
31368;SDS011;18004;48.416;10.066;2024-01-30T08:33:20;17.40;;;9.05;;
31368;SDS011;18004;48.416;10.066;2024-01-30T08:35:46;14.13;;;8.52;;
31368;SDS011;18004;48.416;10.066;2024-01-30T08:38:12;15.48;;;9.77;;
31368;SDS011;18004;48.416;10.066;2024-01-30T08:40:38;19.25;;;9.55;;
31368;SDS011;18004;48.416;10.066;2024-01-30T08:43:04;14.88;;;9.38;;
31368;SDS011;18004;48.416;10.066;2024-01-30T08:45:30;17.77;;;9.20;;
31368;SDS011;18004;48.416;10.066;2024-01-30T08:47:56;18.88;;;10.05;;
31368;SDS011;18004;48.416;10.066;2024-01-30T08:50:22;19.13;;;9.85;;
31368;SDS011;18004;48.416;10.066;2024-01-30T08:52:47;16.42;;;10.35;;
31368;SDS011;18004;48.416;10.066;2024-01-30T08:55:13;17.67;;;10.00;;
31368;SDS011;18004;48.416;10.066;2024-01-30T08:57:39;16.48;;;9.52;;
31368;SDS011;18004;48.416;10.066;2024-01-30T09:00:05;16.90;;;8.88;;
31368;SDS011;18004;48.416;10.066;2024-01-30T09:02:34;16.50;;;9.20;;
31368;SDS011;18004;48.416;10.066;2024-01-30T09:05:00;16.58;;;9.50;;
31368;SDS011;18004;48.416;10.066;2024-01-30T09:07:26;19.10;;;9.65;;
31368;SDS011;18004;48.416;10.066;2024-01-30T09:09:51;16.45;;;9.65;;
31368;SDS011;18004;48.416;10.066;2024-01-30T09:12:17;20.23;;;9.77;;
31368;SDS011;18004;48.416;10.066;2024-01-30T09:14:43;17.08;;;9.52;;
31368;SDS011;18004;48.416;10.066;2024-01-30T09:17:09;18.85;;;9.55;;
31368;SDS011;18004;48.416;10.066;2024-01-30T09:19:35;16.67;;;9.60;;
31368;SDS011;18004;48.416;10.066;2024-01-30T09:22:01;19.15;;;10.10;;
31368;SDS011;18004;48.416;10.066;2024-01-30T09:24:26;17.50;;;9.75;;
31368;SDS011;18004;48.416;10.066;2024-01-30T09:26:52;21.10;;;9.95;;
31368;SDS011;18004;48.416;10.066;2024-01-30T09:29:18;19.88;;;10.13;;
31368;SDS011;18004;48.416;10.066;2024-01-30T09:31:47;18.15;;;9.77;;
31368;SDS011;18004;48.416;10.066;2024-01-30T09:34:13;21.95;;;10.93;;
31368;SDS011;18004;48.416;10.066;2024-01-30T09:36:39;20.35;;;11.35;;
31368;SDS011;18004;48.416;10.066;2024-01-30T09:39:05;20.17;;;10.18;;
31368;SDS011;18004;48.416;10.066;2024-01-30T09:44:28;19.23;;;10.43;;
31368;SDS011;18004;48.416;10.066;2024-01-30T09:46:55;18.67;;;10.65;;
31368;SDS011;18004;48.416;10.066;2024-01-30T09:49:23;17.63;;;10.82;;
31368;SDS011;18004;48.416;10.066;2024-01-30T09:51:51;18.50;;;10.38;;
31368;SDS011;18004;48.416;10.066;2024-01-30T09:54:18;17.63;;;9.65;;
31368;SDS011;18004;48.416;10.066;2024-01-30T09:56:44;20.95;;;10.43;;
31368;SDS011;18004;48.416;10.066;2024-01-30T09:59:10;22.70;;;11.02;;
31368;SDS011;18004;48.416;10.066;2024-01-30T10:01:36;20.75;;;11.50;;
31368;SDS011;18004;48.416;10.066;2024-01-30T10:04:02;16.52;;;9.40;;
31368;SDS011;18004;48.416;10.066;2024-01-30T10:06:29;16.48;;;8.52;;
31368;SDS011;18004;48.416;10.066;2024-01-30T10:08:55;19.95;;;10.15;;
31368;SDS011;18004;48.416;10.066;2024-01-30T10:11:21;16.00;;;9.75;;
31368;SDS011;18004;48.416;10.066;2024-01-30T10:13:47;15.65;;;9.15;;
31368;SDS011;18004;48.416;10.066;2024-01-30T10:16:16;14.07;;;8.70;;
31368;SDS011;18004;48.416;10.066;2024-01-30T10:18:42;14.70;;;8.93;;
31368;SDS011;18004;48.416;10.066;2024-01-30T10:21:11;21.50;;;9.70;;
31368;SDS011;18004;48.416;10.066;2024-01-30T10:23:37;14.13;;;8.30;;
31368;SDS011;18004;48.416;10.066;2024-01-30T10:26:03;21.40;;;9.27;;
31368;SDS011;18004;48.416;10.066;2024-01-30T10:28:29;16.30;;;8.77;;
31368;SDS011;18004;48.416;10.066;2024-01-30T10:31:02;13.43;;;8.25;;
31368;SDS011;18004;48.416;10.066;2024-01-30T10:33:31;14.18;;;8.57;;
31368;SDS011;18004;48.416;10.066;2024-01-30T10:35:59;14.85;;;9.00;;
31368;SDS011;18004;48.416;10.066;2024-01-30T10:38:28;15.20;;;8.25;;
31368;SDS011;18004;48.416;10.066;2024-01-30T10:40:58;14.20;;;7.68;;
31368;SDS011;18004;48.416;10.066;2024-01-30T10:43:47;13.27;;;8.50;;
31368;SDS011;18004;48.416;10.066;2024-01-30T10:46:19;14.52;;;7.63;;
31368;SDS011;18004;48.416;10.066;2024-01-30T10:48:50;16.08;;;8.23;;
31368;SDS011;18004;48.416;10.066;2024-01-30T10:51:22;13.27;;;7.15;;
31368;SDS011;18004;48.416;10.066;2024-01-30T10:53:48;18.33;;;8.60;;
31368;SDS011;18004;48.416;10.066;2024-01-30T10:56:16;15.13;;;8.85;;
31368;SDS011;18004;48.416;10.066;2024-01-30T10:58:42;14.45;;;8.48;;
31368;SDS011;18004;48.416;10.066;2024-01-30T11:01:08;15.85;;;8.70;;
31368;SDS011;18004;48.416;10.066;2024-01-30T11:03:35;15.57;;;9.30;;
31368;SDS011;18004;48.416;10.066;2024-01-30T11:06:02;16.10;;;9.45;;
31368;SDS011;18004;48.416;10.066;2024-01-30T11:08:28;20.20;;;9.32;;
31368;SDS011;18004;48.416;10.066;2024-01-30T11:10:57;17.70;;;9.15;;
31368;SDS011;18004;48.416;10.066;2024-01-30T11:13:27;21.10;;;9.88;;
31368;SDS011;18004;48.416;10.066;2024-01-30T11:15:54;18.25;;;9.77;;
31368;SDS011;18004;48.416;10.066;2024-01-30T11:18:23;14.80;;;7.97;;
31368;SDS011;18004;48.416;10.066;2024-01-30T11:20:56;19.73;;;10.40;;
31368;SDS011;18004;48.416;10.066;2024-01-30T11:23:23;17.95;;;8.98;;
31368;SDS011;18004;48.416;10.066;2024-01-30T11:25:49;19.25;;;9.30;;
31368;SDS011;18004;48.416;10.066;2024-01-30T11:28:17;17.10;;;9.00;;
31368;SDS011;18004;48.416;10.066;2024-01-30T11:30:43;19.35;;;8.82;;
31368;SDS011;18004;48.416;10.066;2024-01-30T11:33:11;19.02;;;10.52;;
31368;SDS011;18004;48.416;10.066;2024-01-30T11:35:41;19.80;;;10.52;;
31368;SDS011;18004;48.416;10.066;2024-01-30T11:38:09;22.70;;;10.65;;
31368;SDS011;18004;48.416;10.066;2024-01-30T11:40:38;28.20;;;13.45;;
31368;SDS011;18004;48.416;10.066;2024-01-30T11:43:05;23.25;;;12.60;;
31368;SDS011;18004;48.416;10.066;2024-01-30T11:45:33;24.63;;;13.18;;
31368;SDS011;18004;48.416;10.066;2024-01-30T11:47:59;18.40;;;10.93;;
31368;SDS011;18004;48.416;10.066;2024-01-30T11:50:28;25.23;;;12.07;;
31368;SDS011;18004;48.416;10.066;2024-01-30T11:53:03;19.77;;;11.32;;
31368;SDS011;18004;48.416;10.066;2024-01-30T11:55:30;21.75;;;8.95;;
31368;SDS011;18004;48.416;10.066;2024-01-30T11:57:59;17.02;;;9.18;;
31368;SDS011;18004;48.416;10.066;2024-01-30T12:00:25;17.60;;;8.88;;
31368;SDS011;18004;48.416;10.066;2024-01-30T12:02:52;15.25;;;8.63;;
31368;SDS011;18004;48.416;10.066;2024-01-30T12:05:25;20.08;;;9.88;;
31368;SDS011;18004;48.416;10.066;2024-01-30T12:07:51;16.27;;;8.60;;
31368;SDS011;18004;48.416;10.066;2024-01-30T12:10:18;17.77;;;8.88;;
31368;SDS011;18004;48.416;10.066;2024-01-30T12:12:47;15.52;;;9.73;;
31368;SDS011;18004;48.416;10.066;2024-01-30T12:15:15;42.80;;;9.80;;
31368;SDS011;18004;48.416;10.066;2024-01-30T12:17:41;15.73;;;9.13;;
31368;SDS011;18004;48.416;10.066;2024-01-30T12:22:41;18.85;;;9.55;;
31368;SDS011;18004;48.416;10.066;2024-01-30T12:25:16;14.85;;;8.48;;
31368;SDS011;18004;48.416;10.066;2024-01-30T12:27:44;16.23;;;8.98;;
31368;SDS011;18004;48.416;10.066;2024-01-30T12:30:12;19.45;;;9.75;;
31368;SDS011;18004;48.416;10.066;2024-01-30T12:32:42;15.10;;;8.77;;
31368;SDS011;18004;48.416;10.066;2024-01-30T12:35:12;15.70;;;9.15;;
31368;SDS011;18004;48.416;10.066;2024-01-30T12:37:39;18.67;;;9.52;;
31368;SDS011;18004;48.416;10.066;2024-01-30T12:40:06;14.07;;;8.90;;
31368;SDS011;18004;48.416;10.066;2024-01-30T12:42:33;15.48;;;9.13;;
31368;SDS011;18004;48.416;10.066;2024-01-30T12:44:59;14.77;;;8.63;;
31368;SDS011;18004;48.416;10.066;2024-01-30T12:47:25;16.80;;;9.20;;
31368;SDS011;18004;48.416;10.066;2024-01-30T12:49:51;13.98;;;8.27;;
31368;SDS011;18004;48.416;10.066;2024-01-30T12:52:19;12.23;;;7.57;;
31368;SDS011;18004;48.416;10.066;2024-01-30T12:54:46;17.52;;;8.65;;
31368;SDS011;18004;48.416;10.066;2024-01-30T12:57:12;21.02;;;9.02;;
31368;SDS011;18004;48.416;10.066;2024-01-30T12:59:38;15.43;;;8.45;;
31368;SDS011;18004;48.416;10.066;2024-01-30T13:02:04;14.27;;;8.77;;
31368;SDS011;18004;48.416;10.066;2024-01-30T13:04:31;14.55;;;8.40;;
31368;SDS011;18004;48.416;10.066;2024-01-30T13:06:57;14.48;;;8.88;;
31368;SDS011;18004;48.416;10.066;2024-01-30T13:09:23;14.70;;;8.45;;
31368;SDS011;18004;48.416;10.066;2024-01-30T13:11:49;13.07;;;8.40;;
31368;SDS011;18004;48.416;10.066;2024-01-30T13:14:16;17.13;;;8.40;;
31368;SDS011;18004;48.416;10.066;2024-01-30T13:16:43;14.27;;;8.05;;
31368;SDS011;18004;48.416;10.066;2024-01-30T13:19:09;14.60;;;7.70;;
31368;SDS011;18004;48.416;10.066;2024-01-30T13:21:34;13.50;;;8.00;;
31368;SDS011;18004;48.416;10.066;2024-01-30T13:24:00;11.95;;;7.32;;
31368;SDS011;18004;48.416;10.066;2024-01-30T13:26:26;15.00;;;7.75;;
31368;SDS011;18004;48.416;10.066;2024-01-30T13:28:52;20.30;;;8.93;;
31368;SDS011;18004;48.416;10.066;2024-01-30T13:31:18;16.67;;;9.38;;
31368;SDS011;18004;48.416;10.066;2024-01-30T13:33:44;19.45;;;8.75;;
31368;SDS011;18004;48.416;10.066;2024-01-30T13:36:10;18.02;;;9.13;;
31368;SDS011;18004;48.416;10.066;2024-01-30T13:38:37;22.80;;;10.32;;
31368;SDS011;18004;48.416;10.066;2024-01-30T13:41:04;17.85;;;9.23;;
31368;SDS011;18004;48.416;10.066;2024-01-30T13:43:30;20.00;;;9.13;;
31368;SDS011;18004;48.416;10.066;2024-01-30T13:45:55;18.05;;;10.10;;
31368;SDS011;18004;48.416;10.066;2024-01-30T13:48:21;19.33;;;10.82;;
31368;SDS011;18004;48.416;10.066;2024-01-30T13:50:47;29.77;;;12.63;;
31368;SDS011;18004;48.416;10.066;2024-01-30T13:53:13;32.42;;;14.02;;
31368;SDS011;18004;48.416;10.066;2024-01-30T13:55:39;29.75;;;13.35;;
31368;SDS011;18004;48.416;10.066;2024-01-30T13:58:05;21.67;;;11.10;;
31368;SDS011;18004;48.416;10.066;2024-01-30T14:00:32;23.63;;;11.45;;
31368;SDS011;18004;48.416;10.066;2024-01-30T14:02:58;32.58;;;12.55;;
31368;SDS011;18004;48.416;10.066;2024-01-30T14:05:25;25.92;;;12.25;;
31368;SDS011;18004;48.416;10.066;2024-01-30T14:07:51;17.45;;;9.88;;
31368;SDS011;18004;48.416;10.066;2024-01-30T14:10:18;20.25;;;9.80;;
31368;SDS011;18004;48.416;10.066;2024-01-30T14:12:43;18.40;;;8.93;;
31368;SDS011;18004;48.416;10.066;2024-01-30T14:15:10;19.73;;;9.38;;
31368;SDS011;18004;48.416;10.066;2024-01-30T14:17:36;14.52;;;8.88;;
31368;SDS011;18004;48.416;10.066;2024-01-30T14:20:02;20.35;;;9.27;;
31368;SDS011;18004;48.416;10.066;2024-01-30T14:22:33;16.77;;;8.25;;
31368;SDS011;18004;48.416;10.066;2024-01-30T14:25:03;13.15;;;7.80;;
31368;SDS011;18004;48.416;10.066;2024-01-30T14:27:29;15.77;;;7.55;;
31368;SDS011;18004;48.416;10.066;2024-01-30T14:29:56;9.93;;;7.20;;
31368;SDS011;18004;48.416;10.066;2024-01-30T14:32:22;10.98;;;6.93;;
31368;SDS011;18004;48.416;10.066;2024-01-30T14:34:49;20.98;;;8.68;;
31368;SDS011;18004;48.416;10.066;2024-01-30T14:37:18;14.63;;;8.32;;